Date,TemperatureHighF,TemperatureAvgF,TemperatureLowF,DewpointHighF,DewpointAvgF,DewpointLowF,HumidityHigh,HumidityAvg,HumidityLow,PressureMaxIn,PressureMinIn,WindSpeedMaxMPH,WindSpeedAvgMPH,GustSpeedMaxMPH,PrecipitationSumIn
2013-1-10,34.9,24.2,15.4,8.0,3.7,1.0,70,44,24,30.26,29.90,4,0,0,0.00
2013-1-11,15.6,6.6,-5.1,11.0,-2.2,-16.0,84,68,53,30.11,29.51,6,1,0,0.00
2013-1-12,5.5,-5.7,-16.0,-14.0,-18.7,-23.0,72,55,33,30.50,30.12,5,0,0,0.00
2013-1-13,0.8,-8.6,-20.9,-10.0,-18.7,-28.0,75,62,44,30.66,30.49,3,0,0,0.00
2013-1-14,4.2,-9.8,-23.9,-9.0,-20.0,-31.0,77,61,47,30.82,30.65,3,0,0,0.00
2013-1-15,11.4,2.3,-10.4,4.0,-8.7,-23.0,72,60,45,30.84,30.58,9,1,0,0.00
2013-1-16,33.7,18.9,6.9,15.0,8.6,2.0,80,66,46,30.83,30.60,2,0,0,0.00
2013-1-17,34.0,17.9,3.1,13.0,4.0,-3.0,87,59,30,30.82,30.66,5,0,0,0.00
2013-1-18,33.5,25.2,17.6,3.0,-1.8,-5.0,39,31,23,30.66,30.35,8,2,0,0.00
2013-1-19,39.3,26.8,19.9,5.0,-2.1,-10.0,38,29,15,30.50,30.36,4,1,0,0.00
2013-1-20,35.2,27.0,21.1,4.0,-3.4,-13.0,44,27,18,30.39,30.27,8,1,0,0.00
2013-1-21,34.2,26.8,20.7,9.0,1.2,-12.0,47,34,19,30.39,30.29,7,1,0,0.00
2013-1-22,41.3,31.3,24.5,0.0,-7.5,-14.0,24,18,14,30.41,30.32,7,2,0,0.00
2013-1-23,47.8,34.7,23.3,4.0,-4.6,-15.0,39,19,12,30.41,30.27,5,1,0,0.00
2013-1-24,39.2,31.7,22.7,21.0,10.8,-7.0,69,45,19,30.27,30.03,10,3,0,0.00
2013-1-25,38.4,31.1,23.9,23.0,20.2,17.0,76,65,53,30.28,30.17,5,1,0,0.00
2013-1-26,35.9,28.2,22.6,26.0,18.9,9.0,90,70,47,30.16,29.83,3,0,0,0.00
2013-1-27,36.7,27.3,17.5,24.0,16.5,8.0,90,66,42,29.93,29.79,6,1,0,0.00
2013-1-28,29.9,19.2,10.1,21.0,10.8,-1.0,86,70,52,29.88,29.70,5,0,0,0.00
2013-1-29,10.1,3.1,-2.5,2.0,-8.5,-13.0,78,60,41,30.35,29.79,6,1,0,0.00
2013-1-30,13.0,6.6,-1.6,8.0,-0.3,-13.0,83,73,57,30.50,30.31,9,2,0,0.00
2013-1-31,23.0,16.6,12.9,11.0,8.1,5.0,82,70,57,30.58,30.43,6,2,0,0.00
2013-2-1,25.1,19.2,14.6,10.0,8.1,6.0,72,62,50,30.48,30.35,9,3,0,0.00
2013-2-2,34.9,24.3,15.7,6.0,0.4,-6.0,62,37,21,30.61,30.49,10,2,0,0.00
2013-2-3,36.5,25.9,12.7,4.0,-4.2,-14.0,42,28,16,30.49,30.10,6,1,0,0.00
2013-2-4,20.8,19.0,13.8,-4.0,-5.2,-7.0,41,34,32,30.14,30.12,4,1,0,0.00
2013-2-8,24.7,22.0,20.3,17.0,15.3,11.0,86,75,55,30.14,30.03,4,0,0,0.00
2013-2-9,21.6,15.7,7.3,17.0,8.3,-3.0,87,73,56,30.02,29.61,5,1,0,0.00
2013-2-10,16.9,9.3,5.4,4.0,-2.3,-6.0,83,60,36,30.28,29.75,6,1,0,0.00
2013-2-11,12.3,4.3,-5.5,5.0,-1.9,-12.0,82,76,66,30.49,30.28,3,0,0,0.00
2013-2-12,22.6,8.5,-7.3,4.0,-3.4,-13.0,80,60,43,30.59,30.47,7,2,0,0.00
2013-2-13,25.9,16.4,9.5,9.0,4.0,0.0,70,59,40,30.52,30.31,6,2,0,0.00
2013-2-14,23.2,16.4,10.7,7.0,3.7,0.0,77,58,42,30.42,30.24,8,2,0,0.00
2013-2-15,19.1,13.0,8.8,5.0,1.3,-2.0,77,60,43,30.66,30.42,8,3,0,0.00
2013-2-16,33.0,22.3,15.1,12.0,4.7,-2.0,58,47,39,30.66,30.29,10,2,0,0.00
2013-2-17,37.5,25.5,15.2,10.0,-3.1,-14.0,71,31,17,30.28,29.77,8,2,0,0.00
2013-2-18,19.3,9.7,-6.3,5.0,-5.8,-17.0,75,51,33,30.48,29.77,9,2,0,0.00
2013-2-19,31.0,11.5,-8.3,4.0,-7.7,-19.0,64,44,24,30.57,30.18,5,1,0,0.00
2013-2-20,27.9,15.5,5.1,15.0,6.1,-4.0,85,68,45,30.17,29.76,2,0,0,0.00
2013-2-21,21.9,14.0,8.0,11.0,7.2,1.0,85,74,60,30.07,29.76,7,1,0,0.00
2013-2-22,18.9,9.2,-0.2,8.0,-1.0,-7.0,80,64,46,30.27,30.08,5,1,0,0.00
2013-2-23,30.1,17.5,4.4,15.0,3.7,-8.0,74,56,43,30.26,29.86,12,1,0,0.00
2013-2-24,15.1,9.0,0.8,8.0,3.2,-5.0,85,77,64,30.37,29.80,4,0,0,0.00
2013-2-25,27.2,12.2,-2.4,6.0,-1.4,-8.0,80,57,32,30.47,30.20,5,1,0,0.00
2013-2-26,16.5,10.1,1.2,4.0,-1.4,-7.0,77,60,50,30.43,30.00,7,1,0,0.00
2013-2-27,18.8,7.6,-3.4,1.0,-5.9,-11.0,72,55,37,30.68,30.44,6,1,0,0.00
2013-2-28,22.8,13.1,4.1,8.0,-0.6,-10.0,77,56,38,30.70,30.61,8,2,0,0.00
2013-3-1,28.8,20.5,13.1,13.0,9.8,5.0,78,64,51,30.65,30.55,9,3,0,0.00
2013-3-2,39.2,28.8,20.4,19.0,13.2,8.0,69,53,39,30.64,30.28,8,2,0,0.00
2013-3-3,37.4,30.6,21.6,20.0,14.1,7.0,84,52,35,30.27,29.79,9,3,0,0.00
2013-3-4,31.7,19.2,6.0,21.0,10.1,-8.0,86,69,43,30.33,29.76,8,1,0,0.00
2013-3-5,39.5,22.9,5.7,1.0,-8.0,-16.0,46,27,15,30.57,30.32,7,2,0,0.00
2013-3-6,43.8,27.3,11.8,12.0,3.4,-5.0,54,38,21,30.38,30.11,5,1,0,0.00
2013-3-7,44.2,30.6,18.9,10.0,5.0,0.0,52,36,19,30.10,30.01,6,1,0,0.00
2013-3-8,39.4,25.7,14.2,22.0,13.7,4.0,88,62,39,30.07,29.75,5,1,0,0.00
2013-3-9,25.4,19.2,5.7,21.0,13.9,0.0,89,80,72,30.19,29.63,7,0,0,0.00
2013-3-10,27.1,15.0,3.3,10.0,3.6,-3.0,79,62,45,30.51,30.19,11,2,0,0.00
2013-3-11,32.4,24.1,18.2,16.0,10.0,2.0,81,56,44,30.48,30.18,12,3,0,0.00
2013-3-12,35.5,26.4,20.5,16.0,13.9,11.0,81,60,44,30.41,30.22,8,2,0,0.00
2013-3-13,41.2,30.9,22.0,18.0,13.8,11.0,64,51,35,30.48,30.37,8,1,0,0.00
2013-3-14,47.9,35.5,25.8,16.0,12.5,10.0,61,41,22,30.48,30.32,6,1,0,0.00
2013-3-15,49.0,37.0,25.3,19.0,15.7,12.0,64,44,27,30.34,30.00,8,2,0,0.00
2013-3-16,36.3,30.6,23.6,26.0,19.8,15.0,83,65,48,29.99,29.77,6,1,0,0.00
2013-3-17,32.7,22.0,12.9,20.0,13.2,3.0,83,70,45,29.97,29.76,13,2,0,0.00
2013-3-18,23.5,17.6,12.0,12.0,7.0,0.0,85,64,49,30.25,29.98,6,2,0,0.00
2013-3-19,31.2,21.6,6.2,9.0,-2.5,-10.0,65,38,17,30.49,30.24,10,2,0,0.00
2013-3-20,30.4,15.8,6.4,18.0,-5.7,-16.0,67,39,21,30.48,30.01,9,1,0,0.00
2013-3-21,32.2,23.8,14.4,22.0,14.6,5.0,86,68,52,30.00,29.67,6,2,0,0.00
2013-3-22,30.7,18.2,4.8,13.0,2.3,-4.0,80,53,28,29.99,29.86,11,2,0,0.00
2013-3-23,14.3,6.0,-1.4,9.0,0.7,-7.0,86,78,69,30.48,29.88,1,0,0,0.00
2013-3-24,9.7,0.1,-10.5,2.0,-6.9,-16.0,80,72,65,30.71,30.48,4,0,0,0.00
2013-3-25,21.6,7.1,-7.4,2.0,-5.9,-14.0,75,57,33,30.75,30.66,6,1,0,0.00
2013-3-26,40.2,24.9,2.5,17.0,9.6,-7.0,75,54,33,30.67,30.21,7,2,0,0.00
2013-3-27,40.9,29.8,20.4,17.0,14.1,10.0,74,54,34,30.22,30.08,7,1,0,0.00
2013-3-28,44.3,28.9,14.8,22.0,14.9,8.0,76,58,32,30.32,30.21,7,1,0,0.00
2013-3-29,43.0,29.4,18.0,28.0,19.4,12.0,86,68,41,30.36,30.23,6,1,0,0.00
2013-3-30,43.4,33.0,22.9,24.0,18.8,15.0,86,59,32,30.35,30.13,11,1,0,0.00
2013-3-31,45.5,30.0,14.3,17.0,12.3,9.0,83,53,25,30.26,30.16,10,1,0,0.00
2013-4-1,45.1,30.0,16.2,27.0,17.2,10.0,89,62,32,30.22,30.01,5,1,0,0.00
2013-4-2,35.0,27.5,22.8,25.0,22.4,20.0,89,81,62,30.14,29.95,3,0,0,0.00
2013-4-3,39.8,27.9,15.0,21.0,15.9,11.0,87,63,38,30.38,30.14,6,1,0,0.00
2013-4-4,46.3,34.0,20.5,20.0,16.0,11.0,77,50,30,30.37,30.18,7,1,0,0.00
2013-4-5,49.2,36.2,25.8,27.0,17.8,12.0,85,50,30,30.17,29.81,7,1,0,0.00
2013-4-6,43.9,33.2,26.2,22.0,16.9,10.0,77,53,31,29.98,29.88,7,1,0,0.00
2013-4-7,38.1,32.1,25.7,23.0,16.7,11.0,71,54,43,29.90,29.84,7,2,0,0.00
2013-4-8,44.1,31.5,19.7,27.0,20.0,15.0,88,66,35,29.87,29.50,7,1,0,0.00
2013-4-9,27.4,14.5,4.7,23.0,9.2,0.0,87,79,67,30.14,29.54,3,0,0,0.00
2013-4-10,27.3,14.2,0.3,13.0,4.5,-5.0,83,66,52,30.33,30.15,7,2,0,0.00
2013-4-11,32.3,25.0,16.2,22.0,15.8,6.0,83,68,58,30.21,30.03,6,2,0,0.00
2013-4-12,36.2,25.6,19.1,22.0,14.3,9.0,85,64,39,30.13,29.99,6,1,0,0.00
2013-4-13,43.7,30.4,13.3,26.0,13.6,5.0,88,53,31,30.13,29.55,9,2,0,0.00
2013-4-14,28.6,22.1,17.3,25.0,13.2,-99.9,89,73,47,29.88,29.52,8,-16,0,0.00
2013-4-15,28.6,22.0,15.0,24.0,17.7,11.0,88,83,75,30.01,29.79,3,0,0,0.01
2013-4-16,41.3,24.5,14.9,27.0,17.9,12.0,88,77,40,30.03,29.81,6,1,0,0.00
2013-4-17,23.1,17.0,3.5,19.0,13.2,-1.0,89,85,80,30.15,29.77,1,0,0,0.00
2013-4-18,15.3,7.8,-1.0,5.0,-1.0,-6.0,82,68,54,30.66,30.15,8,2,0,0.00
2013-4-19,32.9,21.9,8.6,15.0,8.5,-1.0,66,57,45,30.66,30.26,8,2,0,0.00
2013-4-20,36.1,27.1,20.9,23.0,16.5,12.0,78,65,48,30.26,30.06,5,1,0,0.00
2013-4-21,39.1,29.5,21.8,21.0,15.3,12.0,79,57,34,30.24,30.15,6,2,0,0.01
2013-4-22,39.3,29.3,15.2,25.0,19.1,11.0,85,67,42,30.15,29.92,6,1,0,0.00
2013-4-23,25.0,14.6,8.8,15.0,8.3,2.0,83,76,62,30.49,30.04,5,1,0,0.00
2013-4-24,32.2,19.1,2.1,15.0,5.9,-4.0,80,58,37,30.58,30.47,7,1,0,0.00
2013-4-25,47.7,29.1,7.3,17.0,9.7,1.0,80,49,27,30.55,30.17,8,1,0,0.00
2013-4-26,45.4,33.8,21.3,17.0,11.6,6.0,67,42,22,30.39,30.18,4,1,0,0.00
2013-4-27,47.8,35.2,21.2,18.0,13.7,9.0,74,44,25,30.39,30.23,7,1,0,0.00
2013-4-28,53.1,40.8,27.0,21.0,16.9,9.0,62,40,26,30.24,29.95,6,1,0,0.00
2013-4-29,53.9,42.5,26.6,24.0,19.8,15.0,78,44,25,30.00,29.68,10,2,0,0.00
2013-4-30,54.4,46.3,35.2,28.0,20.7,17.0,75,37,27,29.67,29.53,9,2,0,0.00
2013-5-1,34.8,22.7,12.1,28.0,18.6,8.0,89,84,76,30.60,29.62,4,0,0,0.00
2013-5-2,29.0,16.9,-0.1,13.0,4.6,-99.9,84,63,46,30.92,30.60,4,-12,0,0.00
2013-5-3,45.8,31.4,14.3,21.0,11.3,5.0,72,46,24,30.81,30.22,6,1,0,0.00
2013-5-4,42.9,29.6,15.6,28.0,20.0,11.0,89,69,41,30.31,30.11,5,1,0,0.00
2013-5-5,44.7,31.5,18.0,29.0,22.1,15.0,88,70,35,30.31,30.17,4,0,0,0.00
2013-5-6,43.5,30.6,23.9,32.0,20.3,-99.9,91,75,52,30.24,30.01,4,-41,0,0.00
2013-5-7,35.8,6.3,27.2,28.0,-73.9,-99.9,87,17,72,30.09,0.00,2,-791,0,0.00
2013-5-8,-200.0,0.0,200.0,-99.9,-99.9,-99.9,0,0,100,0.00,0.00,0,-999,0,0.00
2013-5-9,-200.0,0.0,200.0,-99.9,-99.9,-99.9,0,0,100,0.00,0.00,0,-999,0,0.00
2013-5-10,-200.0,0.0,200.0,-99.9,-99.9,-99.9,0,0,100,0.00,0.00,0,-999,0,0.00
2013-5-11,-200.0,0.0,200.0,-99.9,-99.9,-99.9,0,0,100,0.00,0.00,0,-999,0,0.00
2013-5-12,-200.0,0.0,200.0,-99.9,-99.9,-99.9,0,0,100,0.00,0.00,0,-999,0,0.00
2013-5-13,-200.0,0.0,200.0,-99.9,-99.9,-99.9,0,0,100,0.00,0.00,0,-999,0,0.00
2013-5-17,44.0,42.7,41.2,20.0,17.6,16.0,39,37,34,30.09,30.07,1,0,0,0.00
2013-5-18,52.7,39.7,32.1,30.0,22.1,14.0,84,52,30,30.09,29.83,7,1,0,0.00
2013-5-19,42.9,34.9,30.5,28.0,22.1,19.0,77,60,44,29.96,29.81,7,2,0,0.00
2013-5-20,45.6,35.2,28.0,30.0,23.2,19.0,82,62,46,30.09,29.92,8,2,0,0.00
2013-5-21,47.6,37.7,28.9,27.0,22.3,19.0,70,55,38,30.09,29.97,6,1,0,0.00
2013-5-22,58.4,42.2,26.0,32.0,24.2,19.0,80,54,25,30.01,29.88,7,1,0,0.00
2013-5-23,62.3,44.9,29.4,35.0,29.4,18.0,88,61,20,30.01,29.86,13,1,0,0.00
2013-5-24,63.0,47.5,27.6,34.0,24.3,15.0,89,48,17,29.97,29.88,6,1,0,0.00
2013-5-25,63.7,48.2,27.7,24.0,16.6,11.0,69,34,14,29.99,29.88,5,1,0,0.00
2013-5-26,65.8,50.2,32.3,29.0,19.3,16.0,62,33,15,29.91,29.73,5,1,0,0.00
2013-5-27,59.7,47.9,34.0,21.0,17.1,9.0,56,31,19,29.81,29.66,6,1,0,0.00
2013-5-28,59.0,44.4,26.7,27.0,20.1,13.0,73,42,19,29.76,29.59,7,1,0,0.00
2013-5-29,47.3,37.0,29.6,28.0,23.4,19.0,87,60,39,29.76,29.50,6,1,0,0.00
2013-5-30,45.6,36.4,29.4,26.0,21.7,17.0,86,58,33,29.98,29.74,12,2,0,0.00
2013-5-31,46.4,38.0,27.8,24.0,17.0,12.0,84,45,28,30.13,29.94,11,2,0,0.00
2013-6-1,55.4,42.2,29.6,25.0,20.5,14.0,71,44,29,30.20,30.11,10,1,0,0.00
2013-6-2,66.0,46.6,24.2,29.0,20.8,16.0,88,44,17,30.17,29.89,7,1,0,0.00
2013-6-3,65.3,50.5,33.2,28.0,23.5,18.0,61,37,20,29.89,29.73,6,1,0,0.00
2013-6-4,64.1,49.2,31.5,33.0,26.9,20.0,69,45,26,29.93,29.81,8,1,0,0.00
2013-6-5,62.9,45.9,28.4,41.0,28.9,19.0,92,59,21,30.00,29.88,8,1,0,0.00
2013-6-6,63.0,46.9,27.8,38.0,29.1,25.0,91,57,26,30.06,29.95,6,1,0,0.00
2013-6-7,59.0,44.0,30.0,42.0,32.3,28.0,94,67,36,30.04,29.89,7,1,0,0.00
2013-6-8,63.9,52.3,38.7,33.0,30.2,28.0,65,45,28,29.89,29.74,7,1,0,0.00
2013-6-9,70.2,55.9,38.6,31.0,27.6,23.0,65,36,21,29.93,29.85,6,1,0,0.00
2013-6-10,76.6,59.0,38.4,33.0,28.3,23.0,57,34,17,29.89,29.72,7,1,0,0.00
2013-6-11,71.9,60.1,46.0,30.0,22.7,18.0,46,25,14,29.80,29.64,13,2,0,0.00
2013-6-12,73.8,58.4,39.4,31.0,24.6,19.0,53,29,16,29.93,29.78,10,1,0,0.00
2013-6-13,71.3,55.5,37.1,37.0,28.8,20.0,69,39,20,29.94,29.79,7,1,0,0.00
2013-6-14,70.0,54.8,35.7,35.0,26.8,17.0,77,40,16,29.87,29.75,9,1,0,0.00
2013-6-15,67.9,51.4,27.9,30.0,25.1,18.0,77,41,18,30.00,29.84,7,1,0,0.00
2013-6-16,60.7,48.6,35.3,38.0,30.7,24.0,82,52,33,30.08,29.91,7,1,0,0.00
2013-6-17,65.0,46.2,30.6,40.0,31.7,26.0,90,62,26,30.15,30.05,7,0,0,0.03
2013-6-18,68.3,49.7,33.0,41.0,30.9,25.0,90,55,20,30.13,29.84,8,1,0,0.00
2013-6-19,71.4,52.0,28.8,38.0,22.4,12.0,87,41,12,29.90,29.71,7,1,0,0.00
2013-6-20,71.0,53.7,33.3,26.0,18.6,11.0,53,27,15,29.82,29.70,6,1,0,0.00
2013-6-21,70.9,54.5,34.4,24.0,19.2,15.0,53,28,14,29.82,29.71,7,1,0,0.00
2013-6-22,69.1,54.3,36.7,28.0,19.7,14.0,50,27,17,29.79,29.65,9,1,0,0.00
2013-6-23,67.2,50.4,31.1,30.0,22.8,15.0,60,36,18,29.85,29.75,5,0,0,0.00
2013-6-24,66.8,50.7,32.1,38.0,24.0,18.0,86,43,17,29.85,29.78,8,1,0,0.00
2013-6-25,68.7,54.4,37.7,32.0,26.0,18.0,48,34,25,29.95,29.78,6,1,0,0.00
2013-6-26,77.7,59.4,36.8,36.0,31.1,24.0,67,37,20,30.00,29.89,7,1,0,0.00
2013-6-27,78.9,62.6,44.1,39.0,31.8,27.0,56,33,19,30.04,29.93,5,1,0,0.00
2013-6-28,77.6,60.3,40.0,42.0,34.3,25.0,76,43,15,30.05,29.92,9,0,0,0.00
2013-6-29,72.4,53.0,40.4,48.0,39.5,33.0,88,64,29,30.06,29.90,6,0,0,0.13
2013-6-30,67.8,50.3,36.6,48.0,39.8,34.0,94,71,33,30.14,29.99,10,1,0,0.09
2013-7-1,68.6,49.3,33.6,46.0,37.5,31.0,94,69,26,30.18,30.07,5,0,0,0.05
2013-7-2,68.6,50.6,34.1,45.0,36.0,29.0,94,65,24,30.16,30.01,7,1,0,0.04
2013-7-3,70.4,49.9,32.9,43.0,35.9,31.0,94,64,23,30.06,29.88,6,1,0,0.02
2013-7-4,71.5,56.2,42.2,44.0,37.6,33.0,89,53,26,29.94,29.77,5,1,0,0.04
2013-7-5,68.3,55.3,39.9,46.0,42.4,37.0,93,65,39,29.82,29.70,8,1,0,0.01
2013-7-6,68.9,54.5,44.5,50.0,42.6,38.0,89,68,33,29.86,29.76,5,1,0,0.09
2013-7-7,67.8,53.7,41.6,49.0,43.1,39.0,93,71,38,29.98,29.84,5,0,0,0.07
2013-7-8,70.7,54.0,37.9,50.0,39.1,32.0,95,63,28,30.04,29.97,4,1,0,0.07
2013-7-9,71.9,56.2,40.1,48.0,37.4,32.0,77,53,28,30.09,30.00,7,0,0,0.01
2013-7-10,71.3,56.0,42.0,51.0,41.5,36.0,83,61,37,30.09,29.90,4,0,0,0.05
2013-7-11,76.0,57.0,38.9,49.0,40.6,36.0,93,60,25,30.00,29.76,4,0,0,0.00
2013-7-12,69.3,55.4,47.9,52.0,42.2,-99.9,85,65,36,29.87,29.69,4,-11,0,0.10
2013-7-13,70.3,54.7,46.0,52.0,46.3,42.0,91,76,37,30.00,29.87,4,0,0,0.11
2013-7-14,66.0,51.4,39.9,51.0,45.0,38.0,94,80,49,30.07,29.97,3,0,0,0.20
2013-7-15,60.9,49.3,42.3,51.0,45.8,40.0,95,88,63,30.07,29.96,3,0,0,0.16
2013-7-16,65.6,49.5,39.6,47.0,34.8,-99.9,94,68,43,30.12,30.00,4,-52,0,0.00
2013-7-17,47.0,39.9,36.2,42.0,36.5,34.0,94,87,79,30.13,30.09,0,0,0,0.00
2013-7-18,50.5,48.8,46.9,44.0,33.6,-99.9,85,77,78,30.10,30.05,0,0,0,0.00
2013-7-19,64.5,52.5,44.9,49.0,44.8,41.0,92,76,49,30.07,29.94,5,0,0,0.06
2013-7-20,72.8,56.5,38.7,45.0,38.2,30.0,94,59,21,30.02,29.80,6,1,0,0.00
2013-7-21,74.0,57.6,39.1,44.0,34.2,25.0,92,50,17,29.85,29.76,6,1,0,0.00
2013-7-22,74.9,57.6,40.3,37.0,29.8,22.0,72,40,16,29.92,29.82,4,1,0,0.00
2013-7-23,76.0,59.2,39.9,39.0,27.7,20.0,56,34,16,29.97,29.86,5,1,0,0.00
2013-7-24,68.5,53.1,41.6,49.0,41.4,37.0,88,66,42,30.00,29.82,4,0,0,0.02
2013-7-25,63.4,49.4,39.0,47.0,41.7,37.0,93,77,43,30.19,29.97,4,1,0,0.23
2013-7-26,66.9,50.6,35.2,48.0,39.7,33.0,95,71,32,30.22,30.12,2,0,0,0.00
2013-7-27,67.4,51.6,36.8,47.0,40.6,34.0,94,70,38,30.16,29.85,4,0,0,0.14
2013-7-28,58.0,49.6,44.9,48.0,43.7,39.0,94,81,53,29.90,29.77,6,0,0,0.13
2013-7-29,64.6,52.4,41.1,45.0,40.7,37.0,87,67,42,30.05,29.88,7,1,0,0.00
2013-7-30,66.8,53.5,36.8,40.0,37.0,33.0,89,57,32,30.17,30.05,8,1,0,0.00
2013-7-31,70.1,55.1,36.6,41.0,36.4,31.0,85,53,28,30.20,30.04,4,0,0,0.00
2013-8-1,68.2,52.6,38.5,46.0,39.4,36.0,92,63,35,30.07,29.91,9,1,0,0.01
2013-8-2,70.8,58.8,47.4,43.0,38.9,33.0,69,50,27,29.94,29.83,6,1,0,0.00
2013-8-3,70.8,54.6,40.9,44.0,39.3,36.0,86,60,30,30.08,29.89,4,0,0,0.00
2013-8-4,71.3,52.6,37.3,47.0,39.8,34.0,93,66,30,30.08,29.98,5,0,0,0.03
2013-8-5,67.1,49.1,38.2,50.0,40.9,35.0,93,76,36,30.06,29.96,5,0,0,0.37
2013-8-6,68.0,50.2,39.9,44.0,39.6,34.0,94,71,29,30.05,29.97,5,0,0,0.02
2013-8-7,53.2,44.0,38.6,45.0,39.7,34.0,92,85,65,30.10,29.98,1,0,0,0.49
2013-8-8,61.0,47.1,38.7,41.0,37.0,34.0,92,70,37,30.13,30.01,7,1,0,0.03
2013-8-9,57.2,44.7,34.4,42.0,36.8,32.0,92,76,48,30.26,30.11,2,0,0,0.00
2013-8-10,66.5,49.2,30.5,43.0,32.8,26.0,94,60,22,30.27,30.13,4,0,0,0.01
2013-8-11,63.6,49.3,38.0,45.0,36.8,33.0,87,64,40,30.14,29.99,4,0,0,0.01
2013-8-12,60.9,47.1,34.8,43.0,37.5,32.0,94,72,41,30.17,30.09,4,0,0,0.04
2013-8-13,64.0,48.4,32.1,42.0,34.8,30.0,94,64,31,30.18,30.08,6,1,0,0.00
2013-8-14,65.1,49.6,33.8,37.0,30.8,27.0,90,53,26,30.16,30.08,6,1,0,0.00
2013-8-15,69.0,52.1,34.4,31.0,28.2,26.0,74,44,22,30.14,30.03,5,1,0,0.00
2013-8-16,71.9,53.4,33.1,36.0,29.1,26.0,76,45,19,30.13,30.06,6,0,0,0.00
2013-8-17,72.6,55.3,37.4,37.0,30.0,28.0,70,42,21,30.13,29.95,4,0,0,0.00
2013-8-18,70.1,50.8,39.1,47.0,37.0,29.0,90,63,30,30.12,29.94,5,0,0,0.06
2013-8-19,71.3,53.0,36.3,47.0,38.5,34.0,92,63,26,30.13,30.01,5,0,0,0.05
2013-8-20,74.0,55.2,37.1,42.0,36.7,33.0,88,55,24,30.05,29.93,3,0,0,0.00
2013-8-21,68.8,53.8,41.0,48.0,39.9,34.0,81,61,36,30.04,29.90,2,0,0,0.01
2013-8-22,64.0,53.0,43.5,51.0,43.9,37.0,90,72,50,30.08,29.95,2,0,0,0.07
2013-8-23,64.9,52.6,38.4,52.0,42.2,36.0,94,71,39,30.07,29.87,9,0,0,0.05
2013-8-24,65.8,47.0,39.2,48.0,30.4,-99.9,90,66,38,30.06,29.90,3,-73,0,0.02
2013-8-25,62.9,51.1,39.6,48.0,44.0,38.0,94,78,49,30.12,30.03,4,0,0,0.07
2013-8-26,69.0,53.1,42.6,51.0,45.1,41.0,94,77,43,30.11,29.98,5,0,0,0.10
2013-8-27,69.7,53.9,40.0,51.0,42.4,38.0,100,69,34,30.09,29.96,4,0,0,0.01
2013-8-28,73.9,54.7,40.1,48.0,40.7,32.0,92,66,22,30.07,29.93,6,0,0,0.14
2013-8-29,66.7,50.9,38.8,53.0,44.0,37.0,95,79,46,30.23,30.05,7,0,0,0.14
2013-8-30,66.5,53.5,45.7,49.0,44.6,42.0,88,73,45,30.18,30.01,2,0,0,0.05
2013-8-31,65.3,52.4,43.9,49.0,44.8,40.0,90,77,43,30.05,29.96,2,0,0,0.02
2013-9-1,45.8,45.3,44.2,44.0,43.3,42.0,93,92,90,30.06,30.01,0,0,0,0.00
2013-9-4,57.7,50.2,44.5,53.0,47.5,42.0,93,90,80,30.23,30.11,0,0,0,0.01
2013-9-5,71.4,55.2,41.5,49.0,42.8,36.0,95,68,28,30.21,30.04,4,0,0,0.01
2013-9-6,73.4,55.8,39.7,44.0,39.7,35.0,92,60,25,30.09,29.94,6,0,0,0.00
2013-9-7,72.5,55.4,38.4,44.0,39.6,35.0,90,60,27,30.01,29.89,5,0,0,0.01
2013-9-8,67.4,53.6,39.5,45.0,40.0,33.0,88,63,28,29.94,29.75,5,0,0,0.00
2013-9-9,63.9,50.9,38.6,46.0,41.0,36.0,92,72,43,29.85,29.72,5,0,0,0.00
2013-9-10,48.1,46.4,44.1,47.0,44.6,42.0,95,93,89,30.09,29.85,4,0,0,0.68
2013-9-11,52.4,46.9,44.4,49.0,45.1,43.0,96,93,85,30.12,30.02,3,0,0,0.25
2013-9-12,54.1,47.2,44.0,49.0,45.1,42.0,96,92,79,30.16,30.02,0,0,0,0.77
2013-9-13,54.9,47.4,41.1,49.0,43.9,38.0,96,88,61,30.02,29.81,1,0,0,0.40
2013-9-14,52.4,41.3,37.1,45.0,38.8,35.0,95,91,74,29.92,29.88,0,0,0,0.03
2013-9-28,36.4,31.3,27.8,20.0,18.5,15.0,63,59,51,30.30,30.29,0,0,0,0.00
2013-9-29,55.4,41.7,27.5,21.0,16.3,12.0,61,37,24,30.29,30.05,6,1,0,0.00
2013-9-30,64.8,49.9,38.6,36.0,26.0,18.0,57,40,30,30.04,29.78,8,2,0,0.00
2013-10-1,64.0,44.9,27.8,30.0,24.3,19.0,78,49,20,30.00,29.85,7,0,0,0.00
2013-10-2,59.9,42.1,27.2,27.0,22.0,19.0,77,50,23,30.02,29.87,2,0,0,0.00
2013-10-3,56.7,42.2,28.6,24.0,21.1,18.0,69,46,23,29.90,29.61,7,1,0,0.00
2013-10-4,40.4,26.2,17.7,26.0,12.9,5.0,80,58,40,30.27,29.56,8,2,0,0.01
2013-10-5,37.9,26.4,17.3,9.0,5.2,3.0,64,43,25,30.54,30.27,7,2,0,0.00
2013-10-6,54.1,37.1,23.5,25.0,17.3,5.0,64,46,32,30.52,30.36,11,1,0,0.00
2013-10-7,63.8,42.6,24.6,21.0,15.3,9.0,63,38,15,30.36,30.04,5,0,0,0.00
2013-10-8,59.0,42.4,29.6,23.0,19.1,14.0,61,42,18,30.04,29.75,5,0,0,0.00
2013-10-9,53.3,37.5,26.2,26.0,21.5,19.0,80,56,29,29.98,29.83,5,0,0,0.00
2013-10-10,40.2,31.8,27.0,33.0,23.6,14.0,87,72,54,29.97,29.62,13,1,0,0.00
2013-10-11,33.8,28.8,26.8,21.0,16.4,-99.9,76,64,57,30.19,29.65,12,-18,0,0.00
2013-10-12,46.6,31.3,17.2,22.0,15.3,9.0,82,55,26,30.36,30.19,4,0,0,0.00
2013-10-13,49.7,33.5,20.3,30.0,23.3,16.0,88,69,33,30.30,29.99,7,0,0,0.00
2013-10-14,36.8,29.4,24.9,26.0,20.8,15.0,91,72,51,30.23,29.81,8,1,0,0.01
2013-10-15,31.2,24.0,19.0,24.0,18.6,14.0,89,80,60,30.32,30.20,3,0,0,0.01
2013-10-16,32.8,24.8,17.5,19.0,14.8,5.0,90,68,44,30.32,30.24,9,2,0,0.03
2013-10-17,39.2,28.5,18.0,18.0,9.4,2.0,69,46,27,30.30,30.10,6,1,0,0.00
2013-10-18,28.9,23.0,18.2,19.0,10.4,3.0,84,60,41,30.41,30.07,9,1,0,0.01
2013-10-19,41.3,30.5,22.2,18.0,13.0,6.0,62,49,37,30.39,30.11,7,2,0,0.01
2013-10-20,40.9,31.4,24.2,21.0,15.6,12.0,82,53,39,30.13,29.95,6,1,0,0.00
2013-10-21,40.0,28.6,17.0,17.0,13.5,8.0,83,56,35,30.40,30.13,9,1,0,0.00
2013-10-22,50.4,35.4,26.3,21.0,17.6,15.0,65,50,29,30.41,30.23,5,0,0,0.00
2013-10-23,52.9,36.5,25.0,20.0,15.7,13.0,65,45,23,30.29,30.19,5,0,0,0.00
2013-10-24,52.9,35.2,21.1,19.0,15.2,12.0,73,48,23,30.35,30.24,4,0,0,0.00
2013-10-25,46.9,35.4,24.7,26.0,19.5,14.0,71,54,34,30.34,30.19,4,0,0,0.00
2013-10-26,49.2,33.6,20.7,23.0,18.4,14.0,84,57,29,30.42,30.32,4,0,0,0.00
2013-10-27,47.3,34.4,24.9,20.0,15.6,11.0,64,48,29,30.33,29.98,6,1,0,0.00
2013-10-28,45.1,31.0,20.8,25.0,16.6,12.0,81,58,31,30.02,29.91,6,0,0,0.00
2013-10-29,40.2,31.9,26.0,25.0,16.4,11.0,90,55,34,30.01,29.80,7,1,0,0.00
2013-10-30,34.3,23.1,13.6,23.0,12.3,8.0,88,65,41,30.04,29.80,7,1,0,0.12
2013-10-31,29.4,22.5,18.7,17.0,11.6,8.0,78,63,52,30.23,30.02,9,2,0,0.01
2013-11-1,31.2,25.6,21.8,18.0,13.7,1.0,84,62,31,30.47,30.19,8,2,0,0.02
2013-11-2,50.5,33.5,15.4,11.0,3.5,-3.0,60,30,15,30.47,30.00,6,0,0,0.00
2013-11-3,43.2,31.9,20.5,21.0,11.5,0.0,85,45,29,30.00,29.62,7,1,0,0.00
2013-11-4,35.6,22.7,9.3,17.0,10.8,4.0,92,64,32,30.06,29.80,5,1,0,0.03
2013-11-5,22.6,15.9,8.5,16.0,4.2,-10.0,88,62,39,30.51,29.99,7,1,0,0.01
2013-11-6,28.6,20.9,11.4,12.0,6.7,-10.0,65,55,37,30.71,30.50,10,2,0,0.00
2013-11-7,43.5,31.6,20.1,19.0,13.9,9.0,66,50,34,30.68,30.22,6,1,0,0.00
2013-11-8,43.1,35.3,26.3,17.0,13.1,8.0,59,41,32,30.21,29.88,10,2,0,0.00
2013-11-9,46.4,34.5,25.3,17.0,12.7,8.0,60,42,28,30.32,30.15,5,0,0,0.00
2013-11-10,46.4,34.1,25.7,17.0,13.5,8.0,60,44,29,30.37,30.29,5,0,0,0.00
2013-11-11,45.1,32.5,24.3,16.0,13.1,11.0,62,47,28,30.58,30.33,6,0,0,0.00
2013-11-12,45.9,30.3,21.6,17.0,12.5,5.0,68,50,27,30.70,30.58,3,0,0,0.00
2013-11-13,45.0,34.7,24.0,15.0,9.5,3.0,50,36,25,30.62,30.11,6,1,0,0.00
2013-11-14,39.4,29.0,16.5,18.0,9.7,-1.0,71,47,20,30.11,29.94,7,0,0,0.00
2013-11-15,37.8,27.8,16.8,22.0,12.4,0.0,89,56,34,29.95,29.63,5,1,0,0.00
2013-11-16,31.1,23.9,18.6,20.0,14.5,10.0,88,69,45,29.70,29.51,10,3,0,0.03
2013-11-17,30.0,21.8,16.7,14.0,11.6,5.0,85,66,49,30.38,29.68,12,4,0,0.01
2013-11-18,45.3,28.8,17.0,13.0,6.4,0.0,60,41,20,30.48,30.27,6,1,0,0.07
2013-11-19,39.6,27.8,17.0,20.0,12.7,4.0,71,54,36,30.27,29.94,10,1,0,0.00
2013-11-20,37.3,29.1,22.1,22.0,17.0,14.0,86,62,39,29.98,29.89,6,1,0,0.00
2013-11-21,25.7,23.2,11.2,23.0,20.3,8.0,90,88,85,30.45,29.95,1,0,0,0.00
2013-11-22,23.3,15.8,9.9,19.0,12.5,7.0,88,86,84,30.81,30.46,0,0,0,0.00
2013-11-23,20.5,16.9,13.5,15.0,13.2,10.0,88,85,79,30.81,30.59,0,0,0,0.00
2013-11-24,29.6,21.1,10.5,24.0,17.1,7.0,91,84,80,30.58,30.16,6,1,0,0.00
2013-11-25,27.4,18.5,9.9,17.0,12.4,6.0,86,77,66,30.59,30.17,6,1,0,0.01
2013-11-26,29.3,16.4,5.3,14.0,8.4,1.0,87,72,52,30.77,30.59,4,0,0,0.03
2013-11-27,40.4,22.4,9.2,18.0,10.6,5.0,83,63,35,30.69,30.44,4,0,0,0.09
2013-11-28,35.4,19.2,8.0,17.0,9.5,3.0,84,68,42,30.55,30.42,2,0,0,0.02
2013-11-29,35.3,24.8,9.7,14.0,8.8,3.0,78,52,38,30.54,30.44,6,1,0,0.00
2013-11-30,35.0,24.8,13.7,8.0,4.1,0.0,61,42,30,30.47,30.33,5,1,0,0.01
2013-12-1,32.2,25.8,15.0,18.0,9.3,2.0,73,51,40,30.40,30.15,11,4,0,0.00
2013-12-2,33.7,27.7,24.7,19.0,16.5,13.0,75,63,49,30.15,29.81,12,4,0,0.00
2013-12-3,27.6,24.2,20.7,22.0,18.2,13.0,89,79,55,29.81,29.52,1,0,0,0.00
2013-12-4,22.6,12.0,-10.5,20.0,6.9,-17.0,89,80,69,30.03,29.39,4,0,0,0.00
2013-12-5,5.7,-8.3,-19.1,-4.0,-15.1,-25.0,80,72,59,30.58,30.03,1,0,0,0.01
2013-12-6,6.0,-8.5,-19.4,-3.0,-15.7,-26.0,80,71,59,30.82,30.57,2,0,0,0.00
2013-12-7,9.2,0.2,-12.0,3.0,-5.1,-18.0,83,78,73,30.80,30.19,1,0,0,0.00
2013-12-8,6.4,0.8,-10.5,1.0,-6.7,-17.0,83,71,56,30.37,30.02,6,1,0,0.00
2013-12-9,7.5,-2.2,-11.0,-7.0,-13.5,-18.0,72,59,50,30.89,30.36,10,2,0,0.00
2013-12-10,23.5,14.7,5.5,8.0,2.2,-6.0,71,58,50,30.85,30.46,13,4,0,0.00
2013-12-11,27.4,19.0,6.5,3.0,-2.2,-7.0,70,42,26,30.70,30.49,6,1,0,0.00
2013-12-12,41.2,25.1,9.2,7.0,-1.2,-8.0,54,33,19,30.68,30.20,6,1,0,0.04
2013-12-13,29.9,22.3,12.7,8.0,4.7,-2.0,71,48,32,30.27,29.95,6,1,0,0.01
2013-12-14,24.6,17.0,7.8,13.0,4.3,-1.0,76,58,39,30.65,30.23,6,1,0,0.00
2013-12-15,34.4,25.6,18.0,14.0,10.4,7.0,68,54,34,30.59,30.43,10,3,0,0.00
2013-12-16,36.6,30.3,26.9,15.0,10.2,3.0,54,44,33,30.43,30.37,9,3,0,0.00
2013-12-17,40.5,29.7,21.6,14.0,8.9,5.0,56,42,31,30.51,30.35,8,1,0,0.01
2013-12-18,43.7,34.8,20.2,10.0,7.5,5.0,58,33,24,30.34,29.93,8,3,0,0.00